createdAt,value
2018-11-25T00:00:18.620Z,5.70
2018-11-25T00:02:47.159Z,5.70
2018-11-25T00:05:15.715Z,5.70
2018-11-25T00:07:44.153Z,5.70
2018-11-25T00:10:12.590Z,5.70
2018-11-25T00:12:40.954Z,5.80
2018-11-25T00:15:09.836Z,5.90
2018-11-25T00:17:38.278Z,6.00
2018-11-25T00:20:09.962Z,6.10
2018-11-25T00:22:38.819Z,6.10
2018-11-25T00:25:09.259Z,6.10
2018-11-25T00:27:37.641Z,6.10
2018-11-25T00:30:09.494Z,6.10
2018-11-25T00:32:37.923Z,6.10
2018-11-25T00:35:07.879Z,6.10
2018-11-25T00:37:36.263Z,6.10
2018-11-25T00:40:06.439Z,6.10
2018-11-25T00:42:34.916Z,6.10
2018-11-25T00:45:03.694Z,6.10
2018-11-25T00:47:32.087Z,6.10
2018-11-25T00:50:00.498Z,6.10
2018-11-25T00:52:28.900Z,6.20
2018-11-25T00:54:57.323Z,6.30
2018-11-25T00:57:25.756Z,6.30
2018-11-25T00:59:54.251Z,6.10
2018-11-25T01:02:22.749Z,6.20
2018-11-25T01:04:51.166Z,6.20
2018-11-25T01:07:19.659Z,6.20
2018-11-25T01:09:48.262Z,6.20
2018-11-25T01:12:16.685Z,6.20
2018-11-25T01:14:45.153Z,6.10
2018-11-25T01:17:13.563Z,6.10
2018-11-25T01:19:41.974Z,6.10
2018-11-25T01:22:10.386Z,6.10
2018-11-25T01:24:38.869Z,6.10
2018-11-25T01:27:07.267Z,6.10
2018-11-25T01:29:35.738Z,6.10
2018-11-25T01:32:04.336Z,6.00
2018-11-25T01:34:32.747Z,6.10
2018-11-25T01:37:01.168Z,6.10
2018-11-25T01:39:29.607Z,6.10
2018-11-25T01:41:58.018Z,6.10
2018-11-25T01:44:26.471Z,6.10
2018-11-25T01:46:54.882Z,6.10
2018-11-25T01:49:23.664Z,6.10
2018-11-25T01:51:52.151Z,6.00
2018-11-25T01:54:20.544Z,6.00
2018-11-25T01:56:49.004Z,6.00
2018-11-25T01:59:17.452Z,6.00
2018-11-25T02:01:45.931Z,6.00
2018-11-25T02:04:14.671Z,5.90
2018-11-25T02:06:43.161Z,5.90
2018-11-25T02:09:11.948Z,5.90
2018-11-25T02:11:40.422Z,5.90
2018-11-25T02:14:09.169Z,5.90
2018-11-25T02:16:37.620Z,5.90
2018-11-25T02:19:06.459Z,5.90
2018-11-25T02:21:35.583Z,5.80
2018-11-25T02:24:04.382Z,5.70
2018-11-25T02:26:32.827Z,5.70
2018-11-25T02:29:01.230Z,5.70
2018-11-25T02:31:29.666Z,5.60
2018-11-25T02:33:58.094Z,5.50
2018-11-25T02:36:26.613Z,5.30
2018-11-25T02:38:55.016Z,5.30
2018-11-25T02:41:23.439Z,5.30
2018-11-25T02:43:51.870Z,5.40
2018-11-25T02:46:20.275Z,5.50
2018-11-25T02:48:48.682Z,5.50
2018-11-25T02:51:17.157Z,5.50
2018-11-25T02:53:45.534Z,5.50
2018-11-25T02:56:14.012Z,5.60
2018-11-25T02:58:42.460Z,5.40
2018-11-25T03:01:10.891Z,5.20
2018-11-25T03:03:39.666Z,5.20
2018-11-25T03:06:08.159Z,5.10
2018-11-25T03:08:36.613Z,5.20
2018-11-25T03:11:05.086Z,5.20
2018-11-25T03:13:33.493Z,5.20
2018-11-25T03:16:02.276Z,5.20
2018-11-25T03:18:30.711Z,5.40
2018-11-25T03:20:59.126Z,5.20
2018-11-25T03:23:27.558Z,5.20
2018-11-25T03:25:56.015Z,5.00
2018-11-25T03:28:24.475Z,4.90
2018-11-25T03:30:52.933Z,4.90
2018-11-25T03:33:21.389Z,5.00
2018-11-25T03:35:49.884Z,4.90
2018-11-25T03:38:18.290Z,4.60
2018-11-25T03:40:46.736Z,4.30
2018-11-25T03:43:15.234Z,4.20
2018-11-25T03:45:43.824Z,4.20
2018-11-25T03:48:12.211Z,4.20
2018-11-25T03:50:40.759Z,4.20
2018-11-25T03:53:09.177Z,4.10
2018-11-25T03:55:37.644Z,4.10
2018-11-25T03:58:06.538Z,4.10
2018-11-25T04:00:35.317Z,4.10
2018-11-25T04:03:03.751Z,4.30
2018-11-25T04:05:32.149Z,4.50
2018-11-25T04:08:00.576Z,4.50
2018-11-25T04:10:28.966Z,4.30
2018-11-25T04:12:57.543Z,4.30
2018-11-25T04:15:26.031Z,4.50
2018-11-25T04:17:54.515Z,4.70
2018-11-25T04:20:22.958Z,4.70
2018-11-25T04:22:51.370Z,4.30
2018-11-25T04:25:20.090Z,4.20
2018-11-25T04:27:48.488Z,4.20
2018-11-25T04:30:17.826Z,4.20
2018-11-25T04:32:47.294Z,4.20
2018-11-25T04:35:16.037Z,4.30
2018-11-25T04:37:44.487Z,4.40
2018-11-25T04:40:14.651Z,4.50
2018-11-25T04:42:43.068Z,4.70
2018-11-25T04:45:13.224Z,4.60
2018-11-25T04:47:41.731Z,4.30
2018-11-25T04:50:13.863Z,4.20
2018-11-25T04:52:42.279Z,4.40
2018-11-25T04:55:10.681Z,4.30
2018-11-25T04:57:39.078Z,4.20
2018-11-25T05:00:10.409Z,4.20
2018-11-25T05:02:39.191Z,4.30
2018-11-25T05:05:09.857Z,4.30
2018-11-25T05:07:38.322Z,4.20
2018-11-25T05:10:10.011Z,4.20
2018-11-25T05:12:38.395Z,4.10
2018-11-25T05:15:10.662Z,4.00
2018-11-25T05:17:39.051Z,3.90
2018-11-25T05:20:09.212Z,4.00
2018-11-25T05:22:37.592Z,3.90
2018-11-25T05:25:08.444Z,3.90
2018-11-25T05:27:36.860Z,3.90
2018-11-25T05:30:08.867Z,3.90
2018-11-25T05:32:37.363Z,3.80
2018-11-25T05:35:07.558Z,3.80
2018-11-25T05:37:35.968Z,3.80
2018-11-25T05:40:04.503Z,3.80
2018-11-25T05:42:32.914Z,3.80
2018-11-25T05:45:01.298Z,3.80
2018-11-25T05:47:29.730Z,3.80
2018-11-25T05:49:58.167Z,3.70
2018-11-25T05:52:26.597Z,3.70
2018-11-25T05:54:55.075Z,3.80
2018-11-25T05:57:23.506Z,3.90
2018-11-25T05:59:51.938Z,4.10
2018-11-25T06:02:20.343Z,4.00
2018-11-25T06:04:48.747Z,4.00
2018-11-25T06:07:17.217Z,4.10
2018-11-25T06:09:45.811Z,4.20
2018-11-25T06:12:14.238Z,4.00
2018-11-25T06:14:42.634Z,3.80
2018-11-25T06:17:11.086Z,3.60
2018-11-25T06:19:39.485Z,3.60
2018-11-25T06:22:07.989Z,3.50
2018-11-25T06:24:36.389Z,3.50
2018-11-25T06:27:04.840Z,3.70
2018-11-25T06:29:33.287Z,3.60
2018-11-25T06:32:01.701Z,3.60
2018-11-25T06:34:30.122Z,3.80
2018-11-25T06:36:58.579Z,3.80
2018-11-25T06:39:26.980Z,3.80
2018-11-25T06:41:55.390Z,3.70
2018-11-25T06:44:23.812Z,3.60
2018-11-25T06:46:52.405Z,3.60
2018-11-25T06:49:20.808Z,3.80
2018-11-25T06:51:49.245Z,4.00
2018-11-25T06:54:17.660Z,4.00
2018-11-25T06:56:46.076Z,3.80
2018-11-25T06:59:14.557Z,3.80
2018-11-25T07:01:43.251Z,3.80
2018-11-25T07:04:11.759Z,3.80
2018-11-25T07:06:40.247Z,3.70
2018-11-25T07:09:10.265Z,3.60
2018-11-25T07:11:38.667Z,3.60
2018-11-25T07:14:07.076Z,3.60
2018-11-25T07:16:35.508Z,3.50
2018-11-25T07:19:03.948Z,3.50
2018-11-25T07:21:32.377Z,3.50
2018-11-25T07:24:01.125Z,3.50
2018-11-25T07:26:29.544Z,3.50
2018-11-25T07:28:57.944Z,3.50
2018-11-25T07:31:26.374Z,3.50
2018-11-25T07:33:54.826Z,3.50
2018-11-25T07:36:23.206Z,3.50
2018-11-25T07:38:51.625Z,3.50
2018-11-25T07:41:20.046Z,3.50
2018-11-25T07:43:48.501Z,3.50
2018-11-25T07:46:16.930Z,3.50
2018-11-25T07:48:45.358Z,3.50
2018-11-25T07:51:13.774Z,3.50
2018-11-25T07:53:42.197Z,3.50
2018-11-25T07:56:10.616Z,3.50
2018-11-25T07:58:39.084Z,3.60
2018-11-25T08:01:07.562Z,3.60
2018-11-25T08:03:36.011Z,3.60
2018-11-25T08:06:05.161Z,3.60
2018-11-25T08:08:33.612Z,3.70
2018-11-25T08:11:02.050Z,3.70
2018-11-25T08:13:30.470Z,3.60
2018-11-25T08:15:58.931Z,3.70
2018-11-25T08:18:27.336Z,3.60
2018-11-25T08:20:55.714Z,3.60
2018-11-25T08:23:24.160Z,3.70
2018-11-25T08:25:52.827Z,3.70
2018-11-25T08:28:21.243Z,3.80
2018-11-25T08:30:49.676Z,3.80
2018-11-25T08:33:18.126Z,3.80
2018-11-25T08:35:46.538Z,3.70
2018-11-25T08:38:14.943Z,3.80
2018-11-25T08:40:43.482Z,3.70
2018-11-25T08:43:12.079Z,3.60
2018-11-25T08:45:40.550Z,3.70
2018-11-25T08:48:09.056Z,3.80
2018-11-25T08:50:37.474Z,3.70
2018-11-25T08:53:05.919Z,3.90
2018-11-25T08:55:34.393Z,3.90
2018-11-25T08:58:02.845Z,3.90
2018-11-25T09:00:31.260Z,4.00
2018-11-25T09:02:59.671Z,3.90
2018-11-25T09:05:28.140Z,3.80
2018-11-25T09:07:56.676Z,3.70
2018-11-25T09:10:25.111Z,3.70
2018-11-25T09:12:56.941Z,3.60
2018-11-25T09:15:27.689Z,3.60
2018-11-25T09:17:56.138Z,3.40
2018-11-25T09:20:24.581Z,3.50
2018-11-25T09:22:54.999Z,3.60
2018-11-25T09:25:25.676Z,3.70
2018-11-25T09:27:54.161Z,3.60
2018-11-25T09:30:24.712Z,3.60
2018-11-25T09:32:53.116Z,3.50
2018-11-25T09:35:21.661Z,3.50
2018-11-25T09:37:50.097Z,3.50
2018-11-25T09:40:20.642Z,3.50
2018-11-25T09:42:49.105Z,3.50
2018-11-25T09:45:18.495Z,3.60
2018-11-25T09:47:47.096Z,3.50
2018-11-25T09:50:16.726Z,3.50
2018-11-25T09:52:45.176Z,3.50
2018-11-25T09:55:15.864Z,3.50
2018-11-25T09:57:45.741Z,3.50
2018-11-25T10:00:18.222Z,3.50
2018-11-25T10:02:46.686Z,3.60
2018-11-25T10:05:15.209Z,3.50
2018-11-25T10:07:44.016Z,3.60
2018-11-25T10:10:14.619Z,3.60
2018-11-25T10:12:43.035Z,3.60
2018-11-25T10:15:13.990Z,3.50
2018-11-25T10:17:42.603Z,3.40
2018-11-25T10:20:13.417Z,3.50
2018-11-25T10:22:42.091Z,3.70
2018-11-25T10:25:11.622Z,3.80
2018-11-25T10:27:40.095Z,3.90
2018-11-25T10:30:17.000Z,3.90
2018-11-25T10:32:46.679Z,4.00
2018-11-25T10:35:15.090Z,3.80
2018-11-25T10:37:43.942Z,3.60
2018-11-25T10:40:15.721Z,3.60
2018-11-25T10:42:44.759Z,3.50
2018-11-25T10:45:15.098Z,3.50
2018-11-25T10:47:43.862Z,3.50
2018-11-25T10:50:13.835Z,3.60
2018-11-25T10:52:42.290Z,3.70
2018-11-25T10:55:12.255Z,3.60
2018-11-25T10:57:41.391Z,3.50
2018-11-25T11:00:16.097Z,3.50
2018-11-25T11:02:45.220Z,3.50
2018-11-25T11:05:19.100Z,3.60
2018-11-25T11:07:47.629Z,3.50
2018-11-25T11:10:16.139Z,3.40
2018-11-25T11:12:44.594Z,3.40
2018-11-25T11:15:13.939Z,3.40
2018-11-25T11:17:42.565Z,3.50
2018-11-25T11:20:11.884Z,3.50
2018-11-25T11:22:40.319Z,3.60
2018-11-25T11:25:09.428Z,3.60
2018-11-25T11:27:38.434Z,3.50
2018-11-25T11:30:09.932Z,3.60
2018-11-25T11:32:41.257Z,3.60
2018-11-25T11:35:10.293Z,3.50
2018-11-25T11:37:39.143Z,3.40
2018-11-25T11:40:10.153Z,3.40
2018-11-25T11:42:38.372Z,3.50
2018-11-25T11:45:09.939Z,3.60
2018-11-25T11:47:38.384Z,3.40
2018-11-25T11:50:10.264Z,3.40
2018-11-25T11:52:38.860Z,3.40
2018-11-25T11:55:09.311Z,3.40
2018-11-25T11:57:37.778Z,3.40
2018-11-25T12:00:11.772Z,3.40
2018-11-25T12:02:40.568Z,3.40
2018-11-25T12:05:09.082Z,3.50
2018-11-25T12:07:37.598Z,3.40
2018-11-25T12:10:09.667Z,3.50
2018-11-25T12:12:38.452Z,3.40
2018-11-25T12:15:14.946Z,3.40
2018-11-25T12:17:43.779Z,3.40
2018-11-25T12:20:12.270Z,3.50
2018-11-25T12:22:40.730Z,3.50
2018-11-25T12:25:12.726Z,3.70
2018-11-25T12:27:41.160Z,3.50
2018-11-25T12:30:11.980Z,3.50
2018-11-25T12:32:40.859Z,3.50
2018-11-25T12:35:10.642Z,3.70
2018-11-25T12:37:39.518Z,3.70
2018-11-25T12:40:10.719Z,3.50
2018-11-25T12:42:39.364Z,3.40
2018-11-25T12:45:16.153Z,3.40
2018-11-25T12:47:44.995Z,3.20
2018-11-25T12:50:14.982Z,3.30
2018-11-25T12:52:43.409Z,3.30
2018-11-25T12:55:16.875Z,3.40
2018-11-25T12:57:45.275Z,3.30
2018-11-25T13:00:22.862Z,3.50
2018-11-25T13:02:51.251Z,3.40
2018-11-25T13:05:19.710Z,3.40
2018-11-25T13:07:48.195Z,3.20
2018-11-25T13:10:16.609Z,3.20
2018-11-25T13:12:45.446Z,3.20
2018-11-25T13:15:14.346Z,3.10
2018-11-25T13:17:42.884Z,3.10
2018-11-25T13:20:12.919Z,3.10
2018-11-25T13:22:41.459Z,3.10
2018-11-25T13:25:11.286Z,3.10
2018-11-25T13:27:39.772Z,3.00
2018-11-25T13:30:15.202Z,3.00
2018-11-25T13:32:43.701Z,3.00
2018-11-25T13:35:12.275Z,3.00
2018-11-25T13:37:40.758Z,3.00
2018-11-25T13:40:11.524Z,3.00
2018-11-25T13:42:39.934Z,3.10
2018-11-25T13:45:07.241Z,3.20
2018-11-25T13:47:35.685Z,3.20
2018-11-25T13:50:04.222Z,3.20
2018-11-25T13:52:32.749Z,3.20
2018-11-25T13:55:01.328Z,3.10
2018-11-25T13:57:29.762Z,3.10
2018-11-25T13:59:59.791Z,3.00
2018-11-25T14:02:28.246Z,3.00
2018-11-25T14:04:57.952Z,3.10
2018-11-25T14:07:27.658Z,2.90
2018-11-25T14:09:56.128Z,3.10
2018-11-25T14:12:24.536Z,3.10
2018-11-25T14:14:52.996Z,3.10
2018-11-25T14:17:21.369Z,3.10
2018-11-25T14:19:49.795Z,3.10
2018-11-25T14:22:18.241Z,3.10
2018-11-25T14:24:46.682Z,3.10
2018-11-25T14:27:15.128Z,3.20
2018-11-25T14:29:43.545Z,3.30
2018-11-25T14:32:11.967Z,3.30
2018-11-25T14:34:40.504Z,3.40
2018-11-25T14:37:08.919Z,3.20
2018-11-25T14:39:37.367Z,3.20
2018-11-25T14:42:05.804Z,3.20
2018-11-25T14:44:34.229Z,3.30
2018-11-25T14:47:03.480Z,3.40
2018-11-25T14:49:32.029Z,3.40
2018-11-25T14:52:00.443Z,3.40
2018-11-25T14:54:28.879Z,3.40
2018-11-25T14:56:57.298Z,3.40
2018-11-25T14:59:25.807Z,3.30
2018-11-25T15:01:54.355Z,3.30
2018-11-25T15:04:22.800Z,3.30
2018-11-25T15:06:51.251Z,3.30
2018-11-25T15:09:19.847Z,3.40
2018-11-25T15:11:48.281Z,3.30
2018-11-25T15:14:16.852Z,3.40
2018-11-25T15:16:45.296Z,3.40
2018-11-25T15:19:13.746Z,3.40
2018-11-25T15:21:42.588Z,3.40
2018-11-25T15:24:11.014Z,3.40
2018-11-25T15:26:39.498Z,3.40
2018-11-25T15:29:08.049Z,3.40
2018-11-25T15:31:36.512Z,3.30
2018-11-25T15:34:04.958Z,3.30
2018-11-25T15:36:33.429Z,3.30
2018-11-25T15:39:01.824Z,3.40
2018-11-25T15:41:30.524Z,3.40
2018-11-25T15:43:58.931Z,3.30
2018-11-25T15:46:27.449Z,3.30
2018-11-25T15:48:55.839Z,3.30
2018-11-25T15:51:24.536Z,3.30
2018-11-25T15:53:53.188Z,3.50
2018-11-25T15:56:21.838Z,3.40
2018-11-25T15:58:50.288Z,3.40
2018-11-25T16:01:18.744Z,3.40
2018-11-25T16:03:47.170Z,3.40
2018-11-25T16:06:22.740Z,3.50
2018-11-25T16:08:51.196Z,3.50
2018-11-25T16:11:19.891Z,3.50
2018-11-25T16:13:48.533Z,3.50
2018-11-25T16:16:17.171Z,3.50
2018-11-25T16:18:45.679Z,3.50
2018-11-25T16:21:14.244Z,3.50
2018-11-25T16:23:43.165Z,3.50
2018-11-25T16:26:16.243Z,3.50
2018-11-25T16:28:46.554Z,3.50
2018-11-25T16:31:14.953Z,3.40
2018-11-25T16:33:43.744Z,3.40
2018-11-25T16:36:12.279Z,3.40
2018-11-25T16:38:40.698Z,3.40
2018-11-25T16:41:09.143Z,3.40
2018-11-25T16:43:37.626Z,3.40
2018-11-25T16:46:06.442Z,3.50
2018-11-25T16:48:34.879Z,3.50
2018-11-25T16:51:03.334Z,3.50
2018-11-25T16:53:31.776Z,3.50
2018-11-25T16:56:00.183Z,3.50
2018-11-25T16:58:28.611Z,3.50
2018-11-25T17:00:57.057Z,3.50
2018-11-25T17:03:25.460Z,3.50
2018-11-25T17:05:54.336Z,3.50
2018-11-25T17:08:31.892Z,3.50
2018-11-25T17:11:01.794Z,3.40
2018-11-25T17:13:28.781Z,3.40
2018-11-25T17:15:57.264Z,3.40
2018-11-25T17:18:25.691Z,3.40
2018-11-25T17:20:54.124Z,3.40
2018-11-25T17:23:22.682Z,3.40
2018-11-25T17:25:51.487Z,3.30
2018-11-25T17:28:20.072Z,3.30
2018-11-25T17:30:48.476Z,3.40
2018-11-25T17:33:16.887Z,3.40
2018-11-25T17:35:45.345Z,3.40
2018-11-25T17:38:13.800Z,3.40
2018-11-25T17:40:42.235Z,3.30
2018-11-25T17:43:12.655Z,3.40
2018-11-25T17:45:41.259Z,3.40
2018-11-25T17:48:09.832Z,3.50
2018-11-25T17:50:38.328Z,3.50
2018-11-25T17:53:07.282Z,3.40
2018-11-25T17:55:35.680Z,3.50
2018-11-25T17:58:04.461Z,3.40
2018-11-25T18:00:44.018Z,3.40
2018-11-25T18:03:16.183Z,3.40
2018-11-25T18:05:44.635Z,3.50
2018-11-25T18:08:13.091Z,3.50
2018-11-25T18:10:41.476Z,3.50
2018-11-25T18:13:10.359Z,3.50
2018-11-25T18:15:40.099Z,3.50
2018-11-25T18:18:11.753Z,3.60
2018-11-25T18:20:44.802Z,3.70
2018-11-25T18:23:13.277Z,3.60
2018-11-25T18:25:42.175Z,3.60
2018-11-25T18:28:11.721Z,3.60
2018-11-25T18:30:40.155Z,3.60
2018-11-25T18:33:08.776Z,3.50
2018-11-25T18:35:37.379Z,3.50
2018-11-25T18:38:06.300Z,3.40
2018-11-25T18:40:34.730Z,3.50
2018-11-25T18:43:03.186Z,3.50
2018-11-25T18:45:32.222Z,3.50
2018-11-25T18:48:00.728Z,3.50
2018-11-25T18:50:29.595Z,3.50
2018-11-25T18:52:58.061Z,3.50
2018-11-25T18:55:25.417Z,3.50
2018-11-25T18:57:53.840Z,3.50
2018-11-25T19:00:26.581Z,3.50
2018-11-25T19:02:55.151Z,3.50
2018-11-25T19:05:24.184Z,3.60
2018-11-25T19:07:52.667Z,3.50
2018-11-25T19:10:21.163Z,3.50
2018-11-25T19:12:49.634Z,3.50
2018-11-25T19:15:19.217Z,3.40
2018-11-25T19:17:47.887Z,3.50
2018-11-25T19:20:21.122Z,3.50
2018-11-25T19:22:49.564Z,3.60
2018-11-25T19:25:18.291Z,3.60
2018-11-25T19:27:47.959Z,3.60
2018-11-25T19:30:25.928Z,3.60
2018-11-25T19:32:48.619Z,3.70
2018-11-25T19:35:18.237Z,3.70
2018-11-25T19:37:47.710Z,3.70
2018-11-25T19:40:17.547Z,3.60
2018-11-25T19:42:45.995Z,3.80
2018-11-25T19:45:17.915Z,3.70
2018-11-25T19:47:46.370Z,3.60
2018-11-25T19:50:21.490Z,3.60
2018-11-25T19:52:50.186Z,3.60
2018-11-25T19:55:18.674Z,3.60
2018-11-25T19:57:47.217Z,3.60
2018-11-25T20:00:17.925Z,3.60
2018-11-25T20:02:46.504Z,3.60
2018-11-25T20:05:15.717Z,3.60
2018-11-25T20:07:45.092Z,3.60
2018-11-25T20:10:16.997Z,3.60
2018-11-25T20:12:47.102Z,3.50
2018-11-25T20:15:16.998Z,3.50
2018-11-25T20:17:53.681Z,3.40
2018-11-25T20:20:16.392Z,3.30
2018-11-25T20:22:45.072Z,3.30
2018-11-25T20:25:14.273Z,3.30
2018-11-25T20:27:44.846Z,3.30
2018-11-25T20:30:14.746Z,3.40
2018-11-25T20:32:48.535Z,3.40
2018-11-25T20:35:16.983Z,3.40
2018-11-25T20:37:50.713Z,3.30
2018-11-25T20:40:19.329Z,3.30
2018-11-25T20:42:47.791Z,3.30
2018-11-25T20:45:23.396Z,3.30
2018-11-25T20:47:51.908Z,3.30
2018-11-25T20:50:20.397Z,3.20
2018-11-25T20:52:54.303Z,3.20
2018-11-25T20:55:22.845Z,3.20
2018-11-25T20:57:51.479Z,3.20
2018-11-25T21:00:21.791Z,3.20
2018-11-25T21:02:50.260Z,3.20
2018-11-25T21:05:18.743Z,3.20
2018-11-25T21:07:47.215Z,3.20
2018-11-25T21:10:16.822Z,3.20
2018-11-25T21:12:46.620Z,3.30
2018-11-25T21:15:15.092Z,3.30
2018-11-25T21:17:43.570Z,3.40
2018-11-25T21:20:14.400Z,3.40
2018-11-25T21:22:42.832Z,3.40
2018-11-25T21:25:14.535Z,3.30
2018-11-25T21:27:43.068Z,3.40
2018-11-25T21:30:15.010Z,3.40
2018-11-25T21:32:43.963Z,3.40
2018-11-25T21:35:12.830Z,3.40
2018-11-25T21:37:41.269Z,3.40
2018-11-25T21:40:14.402Z,3.50
2018-11-25T21:42:42.835Z,3.40
2018-11-25T21:45:13.542Z,3.40
2018-11-25T21:47:42.131Z,3.40
2018-11-25T21:50:18.589Z,3.40
2018-11-25T21:52:47.003Z,3.40
2018-11-25T21:55:16.565Z,3.40
2018-11-25T21:57:45.027Z,3.40
2018-11-25T22:00:17.689Z,3.50
2018-11-25T22:02:46.396Z,3.40
2018-11-25T22:05:15.141Z,3.40
2018-11-25T22:07:43.614Z,3.40
2018-11-25T22:10:16.219Z,3.40
2018-11-25T22:12:45.014Z,3.40
2018-11-25T22:15:15.242Z,3.40
2018-11-25T22:17:43.838Z,3.40
2018-11-25T22:20:14.109Z,3.30
2018-11-25T22:22:42.957Z,3.30
2018-11-25T22:25:13.529Z,3.30
2018-11-25T22:27:41.985Z,3.40
2018-11-25T22:30:20.374Z,3.30
2018-11-25T22:32:48.856Z,3.30
2018-11-25T22:35:19.800Z,3.30
2018-11-25T22:37:48.278Z,3.40
2018-11-25T22:40:17.939Z,3.40
2018-11-25T22:42:47.289Z,3.40
2018-11-25T22:45:16.987Z,3.40
2018-11-25T22:47:45.391Z,3.30
2018-11-25T22:50:17.384Z,3.30
2018-11-25T22:52:45.843Z,3.30
2018-11-25T22:55:19.454Z,3.40
2018-11-25T22:57:47.891Z,3.40
2018-11-25T23:00:21.758Z,3.40
2018-11-25T23:02:50.284Z,3.30
2018-11-25T23:05:30.080Z,3.30
2018-11-25T23:07:58.606Z,3.30
2018-11-25T23:10:27.045Z,3.40
2018-11-25T23:12:55.495Z,3.30
2018-11-25T23:15:24.004Z,3.30
2018-11-25T23:17:52.449Z,3.30
2018-11-25T23:20:21.064Z,3.30
2018-11-25T23:22:49.535Z,3.30
2018-11-25T23:25:18.012Z,3.30
2018-11-25T23:27:46.449Z,3.30
2018-11-25T23:30:15.290Z,3.30
2018-11-25T23:32:43.687Z,3.20
2018-11-25T23:35:14.987Z,3.30
2018-11-25T23:37:43.584Z,3.20
2018-11-25T23:40:12.127Z,3.20
2018-11-25T23:42:40.960Z,3.20
2018-11-25T23:45:12.859Z,3.30
2018-11-25T23:47:41.349Z,3.30
2018-11-25T23:50:12.670Z,3.40
2018-11-25T23:52:41.948Z,3.40
2018-11-25T23:55:12.459Z,3.40
2018-11-25T23:57:41.518Z,3.40
